createdAt,value
2019-05-23T00:00:52.697Z,100787.47
2019-05-23T00:01:45.916Z,100781.27
2019-05-23T00:02:41.851Z,100789.52
2019-05-23T00:03:19.542Z,100791.09
2019-05-23T00:04:05.237Z,100791.09
2019-05-23T00:04:49.207Z,100790.23
2019-05-23T00:05:45.514Z,100790.23
2019-05-23T00:06:24.436Z,100791.28
2019-05-23T00:07:01.723Z,100795.03
2019-05-23T00:07:38.683Z,100795.03
2019-05-23T00:08:18.572Z,100794.97
2019-05-23T00:08:55.925Z,100793.03
2019-05-23T00:09:32.889Z,100793.03
2019-05-23T00:10:13.544Z,100800.00
2019-05-23T00:10:56.533Z,100796.17
2019-05-23T00:11:40.726Z,100801.28
2019-05-23T00:12:53.495Z,100795.03
2019-05-23T00:14:01.773Z,100797.41
2019-05-23T00:14:46.825Z,100794.20
2019-05-23T00:15:27.655Z,100809.48
2019-05-23T00:16:04.442Z,100809.48
2019-05-23T00:16:40.664Z,100807.88
2019-05-23T00:17:19.069Z,100811.09
2019-05-23T00:17:56.618Z,100810.33
2019-05-23T00:18:32.486Z,100810.33
2019-05-23T00:19:09.248Z,100812.70
2019-05-23T00:19:45.168Z,100816.20
2019-05-23T00:20:22.050Z,100821.56
2019-05-23T00:20:57.904Z,100810.84
2019-05-23T00:21:34.950Z,100822.08
2019-05-23T00:22:11.725Z,100830.39
2019-05-23T00:22:48.462Z,100830.39
2019-05-23T00:23:25.696Z,100833.61
2019-05-23T00:24:04.137Z,100836.52
2019-05-23T00:24:42.710Z,100827.14
2019-05-23T00:25:19.952Z,100827.14
2019-05-23T00:25:55.864Z,100836.73
2019-05-23T00:26:32.856Z,100835.35
2019-05-23T00:27:10.414Z,100839.66
2019-05-23T00:27:46.619Z,100835.09
2019-05-23T00:28:23.117Z,100836.95
2019-05-23T00:29:09.475Z,100837.70
2019-05-23T00:29:40.391Z,100838.25
2019-05-23T00:30:41.720Z,100841.46
2019-05-23T00:31:35.036Z,100842.27
2019-05-23T00:32:36.074Z,100842.27
2019-05-23T00:33:14.390Z,100844.59
2019-05-23T00:33:51.812Z,100842.14
2019-05-23T00:34:27.743Z,100853.63
2019-05-23T00:35:04.891Z,100858.20
2019-05-23T00:35:41.220Z,100858.73
2019-05-23T00:36:18.712Z,100856.24
2019-05-23T00:36:55.294Z,100857.80
2019-05-23T00:37:31.962Z,100859.92
2019-05-23T00:38:07.905Z,100866.34
2019-05-23T00:38:45.655Z,100862.75
2019-05-23T00:39:23.134Z,100863.24
2019-05-23T00:39:59.016Z,100865.89
2019-05-23T00:40:36.616Z,100866.95
2019-05-23T00:41:13.780Z,100866.05
2019-05-23T00:41:51.499Z,100864.36
2019-05-23T00:42:28.845Z,100869.67
2019-05-23T00:43:05.526Z,100866.41
2019-05-23T00:43:42.779Z,100872.83
2019-05-23T00:44:19.271Z,100866.81
2019-05-23T00:44:56.244Z,100866.72
2019-05-23T00:45:33.376Z,100872.89
2019-05-23T00:46:09.653Z,100869.83
2019-05-23T00:46:46.750Z,100873.08
2019-05-23T00:47:22.646Z,100871.63
2019-05-23T00:47:59.131Z,100869.67
2019-05-23T00:48:36.563Z,100872.28
2019-05-23T00:49:14.328Z,100878.17
2019-05-23T00:49:56.296Z,100878.13
2019-05-23T00:50:33.270Z,100884.57
2019-05-23T00:51:09.798Z,100891.55
2019-05-23T00:51:46.577Z,100887.68
2019-05-23T00:52:23.253Z,100894.09
2019-05-23T00:52:59.515Z,100890.78
2019-05-23T00:53:35.453Z,100900.16
2019-05-23T00:54:11.438Z,100896.02
2019-05-23T00:54:47.610Z,100902.94
2019-05-23T00:55:24.174Z,100903.08
2019-05-23T00:56:01.674Z,100901.63
2019-05-23T00:56:38.907Z,100905.89
2019-05-23T00:57:16.387Z,100909.59
2019-05-23T00:57:52.808Z,100908.37
2019-05-23T00:58:30.660Z,100911.28
2019-05-23T00:59:08.363Z,100914.16
2019-05-23T00:59:44.399Z,100918.41
2019-05-23T01:00:21.388Z,100921.13
2019-05-23T01:01:00.512Z,100918.72
2019-05-23T01:01:37.987Z,100916.56
2019-05-23T01:02:14.317Z,100920.93
2019-05-23T01:02:50.278Z,100917.91
2019-05-23T01:03:27.259Z,100917.91
2019-05-23T01:04:04.498Z,100922.84
2019-05-23T01:04:42.466Z,100919.02
2019-05-23T01:05:18.913Z,100921.48
2019-05-23T01:05:54.852Z,100923.67
2019-05-23T01:06:32.430Z,100928.02
2019-05-23T01:07:09.841Z,100922.23
2019-05-23T01:07:46.603Z,100925.69
2019-05-23T01:08:23.566Z,100928.65
2019-05-23T01:09:00.087Z,100929.01
2019-05-23T01:09:36.582Z,100930.36
2019-05-23T01:10:14.506Z,100930.97
2019-05-23T01:10:51.730Z,100930.45
2019-05-23T01:11:28.730Z,100932.91
2019-05-23T01:12:05.831Z,100931.80
2019-05-23T01:12:42.234Z,100934.56
2019-05-23T01:13:19.046Z,100937.22
2019-05-23T01:13:56.410Z,100940.73
2019-05-23T01:14:32.839Z,100939.11
2019-05-23T01:15:10.152Z,100940.59
2019-05-23T01:15:47.746Z,100941.59
2019-05-23T01:16:25.843Z,100941.98
2019-05-23T01:17:02.962Z,100945.59
2019-05-23T01:17:38.868Z,100947.86
2019-05-23T01:18:16.640Z,100942.92
2019-05-23T01:18:54.403Z,100945.89
2019-05-23T01:19:30.557Z,100951.00
2019-05-23T01:20:09.179Z,100950.51
2019-05-23T01:21:02.106Z,100947.55
2019-05-23T01:21:49.502Z,100946.19
2019-05-23T01:22:25.867Z,100952.48
2019-05-23T01:23:03.793Z,100952.81
2019-05-23T01:23:41.598Z,100948.80
2019-05-23T01:24:40.794Z,100954.53
2019-05-23T01:25:16.965Z,100950.77
2019-05-23T01:25:52.947Z,100957.86
2019-05-23T01:26:29.071Z,100958.16
2019-05-23T01:27:07.460Z,100959.23
2019-05-23T01:27:45.721Z,100961.95
2019-05-23T01:28:23.695Z,100964.08
2019-05-23T01:28:59.830Z,100967.23
2019-05-23T01:29:42.361Z,100964.98
2019-05-23T01:30:22.900Z,100962.22
2019-05-23T01:31:00.938Z,100966.34
2019-05-23T01:31:39.704Z,100965.52
2019-05-23T01:32:28.771Z,100969.55
2019-05-23T01:33:05.443Z,100964.62
2019-05-23T01:33:42.245Z,100968.33
2019-05-23T01:34:18.973Z,100970.17
2019-05-23T01:34:55.331Z,100969.10
2019-05-23T01:35:32.313Z,100965.77
2019-05-23T01:36:09.960Z,100963.31
2019-05-23T01:36:45.994Z,100963.25
2019-05-23T01:37:21.992Z,100968.67
2019-05-23T01:37:58.346Z,100965.96
2019-05-23T01:38:35.100Z,100956.22
2019-05-23T01:39:12.321Z,100960.59
2019-05-23T01:39:48.701Z,100960.84
2019-05-23T01:40:24.866Z,100955.72
2019-05-23T01:41:00.928Z,100954.92
2019-05-23T01:41:37.130Z,100957.39
2019-05-23T01:42:13.707Z,100957.39
2019-05-23T01:42:49.598Z,100960.10
2019-05-23T01:43:26.721Z,100960.10
2019-05-23T01:44:03.092Z,100955.54
2019-05-23T01:44:39.697Z,100957.97
2019-05-23T01:45:16.588Z,100958.80
2019-05-23T01:45:53.102Z,100958.50
2019-05-23T01:46:29.933Z,100957.14
2019-05-23T01:47:06.246Z,100961.45
2019-05-23T01:47:42.883Z,100969.29
2019-05-23T01:48:19.810Z,100970.34
2019-05-23T01:48:55.779Z,100968.67
2019-05-23T01:49:32.313Z,100971.33
2019-05-23T01:50:09.852Z,100975.40
2019-05-23T01:50:46.651Z,100968.13
2019-05-23T01:51:23.007Z,100971.94
2019-05-23T01:51:59.681Z,100968.48
2019-05-23T01:52:35.635Z,100970.15
2019-05-23T01:53:13.699Z,100968.80
2019-05-23T01:53:49.613Z,100973.42
2019-05-23T01:54:25.496Z,100972.37
2019-05-23T01:55:02.234Z,100974.00
2019-05-23T01:55:38.086Z,100975.11
2019-05-23T01:56:13.986Z,100975.41
2019-05-23T01:56:50.562Z,100968.69
2019-05-23T01:57:26.768Z,100969.55
2019-05-23T01:58:02.710Z,100973.13
2019-05-23T01:58:38.661Z,100969.89
2019-05-23T01:59:15.792Z,100968.28
2019-05-23T02:00:08.300Z,100969.39
2019-05-23T02:00:31.448Z,100971.05
2019-05-23T02:01:07.995Z,100964.88
2019-05-23T02:01:44.495Z,100958.91
2019-05-23T02:02:21.288Z,100964.22
2019-05-23T02:02:57.930Z,100963.27
2019-05-23T02:03:34.043Z,100958.99
2019-05-23T02:04:11.716Z,100963.87
2019-05-23T02:04:47.637Z,100958.78
2019-05-23T02:05:23.840Z,100959.83
2019-05-23T02:05:59.803Z,100964.01
2019-05-23T02:06:35.844Z,100960.41
2019-05-23T02:07:12.176Z,100955.97
2019-05-23T02:07:48.789Z,100955.07
2019-05-23T02:08:25.301Z,100951.24
2019-05-23T02:09:01.457Z,100954.36
2019-05-23T02:09:37.324Z,100950.73
2019-05-23T02:10:14.091Z,100950.62
2019-05-23T02:10:50.083Z,100945.91
2019-05-23T02:11:26.558Z,100947.05
2019-05-23T02:12:03.677Z,100947.31
2019-05-23T02:12:41.085Z,100937.56
2019-05-23T02:13:17.115Z,100944.19
2019-05-23T02:13:54.605Z,100948.09
2019-05-23T02:14:30.647Z,100945.11
2019-05-23T02:15:07.408Z,100946.25
2019-05-23T02:15:43.863Z,100952.17
2019-05-23T02:16:21.220Z,100953.33
2019-05-23T02:16:58.447Z,100955.05
2019-05-23T02:17:35.143Z,100950.50
2019-05-23T02:18:11.710Z,100946.50
2019-05-23T02:18:47.721Z,100955.30
2019-05-23T02:19:23.747Z,100951.81
2019-05-23T02:19:59.912Z,100959.41
2019-05-23T02:20:35.989Z,100951.91
2019-05-23T02:21:13.099Z,100958.74
2019-05-23T02:21:50.421Z,100952.02
2019-05-23T02:22:26.401Z,100945.46
2019-05-23T02:23:03.172Z,100954.27
2019-05-23T02:23:40.369Z,100953.84
2019-05-23T02:24:17.396Z,100959.36
2019-05-23T02:24:53.735Z,100956.08
2019-05-23T02:25:30.697Z,100952.41
2019-05-23T02:26:07.257Z,100958.67
2019-05-23T02:26:43.249Z,100951.68
2019-05-23T02:27:20.633Z,100955.50
2019-05-23T02:27:56.758Z,100951.97
2019-05-23T02:28:33.114Z,100952.83
2019-05-23T02:29:10.359Z,100951.76
2019-05-23T02:29:46.324Z,100955.13
2019-05-23T02:30:34.067Z,100950.18
2019-05-23T02:31:01.459Z,100947.83
2019-05-23T02:31:38.861Z,100947.64
2019-05-23T02:32:15.235Z,100945.63
2019-05-23T02:32:51.412Z,100942.74
2019-05-23T02:33:27.758Z,100945.14
2019-05-23T02:34:04.281Z,100943.02
2019-05-23T02:34:40.933Z,100942.83
2019-05-23T02:35:17.374Z,100941.60
2019-05-23T02:35:53.314Z,100936.52
2019-05-23T02:36:30.617Z,100934.19
2019-05-23T02:37:12.721Z,100934.59
2019-05-23T02:38:05.917Z,100935.76
2019-05-23T02:39:16.088Z,100938.39
2019-05-23T02:39:57.280Z,100931.60
2019-05-23T02:40:53.392Z,100933.13
2019-05-23T02:41:39.793Z,100929.41
2019-05-23T02:42:47.760Z,100931.83
2019-05-23T02:43:24.546Z,100933.66
2019-05-23T02:44:05.734Z,100932.09
2019-05-23T02:44:41.695Z,100937.48
2019-05-23T02:45:23.528Z,100936.75
2019-05-23T02:46:03.617Z,100937.65
2019-05-23T02:47:00.964Z,100934.45
2019-05-23T02:47:39.503Z,100933.19
2019-05-23T02:48:22.989Z,100938.56
2019-05-23T02:49:04.126Z,100936.16
2019-05-23T02:49:40.791Z,100936.16
2019-05-23T02:50:24.007Z,100934.38
2019-05-23T02:51:03.463Z,100925.53
2019-05-23T02:51:39.591Z,100927.41
2019-05-23T02:52:46.726Z,100928.67
2019-05-23T02:53:25.664Z,100927.20
2019-05-23T02:54:03.126Z,100923.05
2019-05-23T02:54:39.117Z,100926.94
2019-05-23T02:55:23.968Z,100924.05
2019-05-23T02:56:01.775Z,100931.47
2019-05-23T02:56:38.758Z,100927.81
2019-05-23T02:57:14.860Z,100923.16
2019-05-23T02:57:52.305Z,100920.45
2019-05-23T02:58:55.828Z,100927.20
2019-05-23T02:59:48.537Z,100926.21
2019-05-23T03:00:54.055Z,100925.08
2019-05-23T03:01:57.410Z,100918.96
2019-05-23T03:03:09.153Z,100919.30
2019-05-23T03:03:46.523Z,100918.86
2019-05-23T03:04:30.299Z,100919.89
2019-05-23T03:05:09.752Z,100918.63
2019-05-23T03:05:46.137Z,100918.63
2019-05-23T03:06:22.151Z,100920.22
2019-05-23T03:06:59.539Z,100917.39
2019-05-23T03:07:36.219Z,100916.03
2019-05-23T03:08:13.006Z,100920.19
2019-05-23T03:08:50.000Z,100921.55
2019-05-23T03:09:29.915Z,100922.91
2019-05-23T03:10:06.318Z,100923.14
2019-05-23T03:10:57.588Z,100924.74
2019-05-23T03:11:45.823Z,100927.67
2019-05-23T03:12:25.315Z,100927.14
2019-05-23T03:13:02.759Z,100931.70
2019-05-23T03:13:38.871Z,100925.91
2019-05-23T03:14:18.800Z,100925.34
2019-05-23T03:14:55.147Z,100926.77
2019-05-23T03:15:33.652Z,100925.17
2019-05-23T03:16:12.424Z,100926.01
2019-05-23T03:16:50.004Z,100930.23
2019-05-23T03:17:27.229Z,100922.51
2019-05-23T03:18:05.085Z,100923.67
2019-05-23T03:18:43.169Z,100922.77
2019-05-23T03:19:29.078Z,100917.80
2019-05-23T03:20:08.789Z,100921.80
2019-05-23T03:20:44.791Z,100924.19
2019-05-23T03:21:21.371Z,100921.66
2019-05-23T03:22:01.116Z,100924.86
2019-05-23T03:22:48.998Z,100921.33
2019-05-23T03:23:25.023Z,100919.16
2019-05-23T03:24:02.456Z,100916.20
2019-05-23T03:24:39.704Z,100920.03
2019-05-23T03:25:55.729Z,100913.78
2019-05-23T03:27:17.074Z,100914.58
2019-05-23T03:27:53.178Z,100914.84
2019-05-23T03:28:32.950Z,100912.52
2019-05-23T03:29:11.226Z,100917.98
2019-05-23T03:29:48.305Z,100911.48
2019-05-23T03:30:28.271Z,100920.02
2019-05-23T03:31:28.486Z,100908.50
2019-05-23T03:31:53.513Z,100915.20
2019-05-23T03:32:39.275Z,100919.72
2019-05-23T03:33:15.219Z,100924.88
2019-05-23T03:33:52.271Z,100928.47
2019-05-23T03:34:31.567Z,100924.22
2019-05-23T03:35:19.687Z,100929.14
2019-05-23T03:35:57.065Z,100931.20
2019-05-23T03:36:33.743Z,100925.75
2019-05-23T03:37:10.015Z,100927.77
2019-05-23T03:37:46.220Z,100929.60
2019-05-23T03:38:22.387Z,100922.16
2019-05-23T03:38:58.677Z,100924.31
2019-05-23T03:39:35.395Z,100926.08
2019-05-23T03:40:13.782Z,100925.22
2019-05-23T03:40:49.780Z,100925.55
2019-05-23T03:41:26.647Z,100919.83
2019-05-23T03:42:03.867Z,100916.16
2019-05-23T03:42:40.942Z,100915.93
2019-05-23T03:43:17.709Z,100918.05
2019-05-23T03:43:54.178Z,100911.09
2019-05-23T03:44:31.044Z,100914.81
2019-05-23T03:45:08.417Z,100919.26
2019-05-23T03:45:54.010Z,100911.97
2019-05-23T03:46:32.006Z,100907.42
2019-05-23T03:47:09.910Z,100908.27
2019-05-23T03:47:47.109Z,100910.55
2019-05-23T03:48:24.369Z,100903.78
2019-05-23T03:49:00.843Z,100902.52
2019-05-23T03:49:43.138Z,100899.23
2019-05-23T03:50:19.566Z,100897.63
2019-05-23T03:50:58.049Z,100903.41
2019-05-23T03:51:34.110Z,100892.74
2019-05-23T03:52:11.393Z,100890.81
2019-05-23T03:52:47.270Z,100896.50
2019-05-23T03:53:24.920Z,100886.97
2019-05-23T03:54:04.530Z,100888.56
2019-05-23T03:54:42.809Z,100885.60
2019-05-23T03:55:21.555Z,100891.70
2019-05-23T03:55:59.657Z,100883.48
2019-05-23T03:56:36.408Z,100879.16
2019-05-23T03:57:13.348Z,100879.73
2019-05-23T03:57:49.669Z,100882.75
2019-05-23T03:58:27.151Z,100879.55
2019-05-23T03:59:04.690Z,100872.98
2019-05-23T03:59:42.316Z,100871.37
2019-05-23T04:00:19.633Z,100873.63
2019-05-23T04:00:57.370Z,100873.63
2019-05-23T04:01:46.739Z,100868.19
2019-05-23T04:02:15.923Z,100865.45
2019-05-23T04:02:52.274Z,100864.56
2019-05-23T04:03:29.834Z,100863.86
2019-05-23T04:04:06.534Z,100864.33
2019-05-23T04:04:42.640Z,100862.41
2019-05-23T04:05:18.817Z,100862.27
2019-05-23T04:05:55.549Z,100860.91
2019-05-23T04:06:31.757Z,100858.41
2019-05-23T04:07:07.992Z,100862.97
2019-05-23T04:07:44.770Z,100860.39
2019-05-23T04:08:22.417Z,100858.47
2019-05-23T04:08:58.613Z,100860.80
2019-05-23T04:09:34.482Z,100855.81
2019-05-23T04:10:12.524Z,100857.89
2019-05-23T04:10:51.844Z,100861.64
2019-05-23T04:11:27.802Z,100855.30
2019-05-23T04:12:06.539Z,100855.53
2019-05-23T04:12:42.711Z,100857.23
2019-05-23T04:13:18.948Z,100857.70
2019-05-23T04:13:55.537Z,100853.52
2019-05-23T04:14:31.873Z,100852.29
2019-05-23T04:15:09.581Z,100858.70
2019-05-23T04:15:46.093Z,100861.04
2019-05-23T04:16:22.990Z,100856.19
2019-05-23T04:16:59.525Z,100857.13
2019-05-23T04:17:36.524Z,100857.50
2019-05-23T04:18:12.727Z,100863.02
2019-05-23T04:18:48.577Z,100859.63
2019-05-23T04:19:24.673Z,100855.91
2019-05-23T04:20:00.659Z,100864.22
2019-05-23T04:20:36.578Z,100860.83
2019-05-23T04:21:12.561Z,100861.30
2019-05-23T04:21:48.546Z,100856.30
2019-05-23T04:22:24.508Z,100860.22
2019-05-23T04:23:00.462Z,100861.65
2019-05-23T04:23:36.625Z,100857.09
2019-05-23T04:24:13.209Z,100854.59
2019-05-23T04:24:49.988Z,100858.02
2019-05-23T04:25:26.609Z,100858.95
2019-05-23T04:26:03.808Z,100858.74
2019-05-23T04:26:39.783Z,100857.53
2019-05-23T04:27:15.692Z,100854.03
2019-05-23T04:27:53.207Z,100854.16
2019-05-23T04:28:30.014Z,100851.09
2019-05-23T04:29:06.307Z,100850.42
2019-05-23T04:29:42.389Z,100847.03
2019-05-23T04:30:19.920Z,100851.73
2019-05-23T04:30:55.909Z,100847.30
2019-05-23T04:31:32.287Z,100845.50
2019-05-23T04:32:09.855Z,100844.63
2019-05-23T04:32:45.859Z,100840.04
2019-05-23T04:33:21.752Z,100845.98
2019-05-23T04:33:57.867Z,100845.08
2019-05-23T04:34:44.516Z,100833.03
2019-05-23T04:35:20.614Z,100836.45
2019-05-23T04:35:56.908Z,100837.70
2019-05-23T04:36:33.093Z,100838.39
2019-05-23T04:37:08.964Z,100830.13
2019-05-23T04:37:47.386Z,100820.88
2019-05-23T04:38:23.329Z,100823.76
2019-05-23T04:38:59.236Z,100817.84
2019-05-23T04:39:35.610Z,100823.08
2019-05-23T04:40:13.469Z,100820.13
2019-05-23T04:40:50.618Z,100818.08
2019-05-23T04:41:26.538Z,100815.47
2019-05-23T04:42:02.823Z,100818.12
2019-05-23T04:42:38.697Z,100815.63
2019-05-23T04:43:14.574Z,100810.16
2019-05-23T04:43:50.564Z,100804.27
2019-05-23T04:44:26.902Z,100808.71
2019-05-23T04:45:02.750Z,100804.19
2019-05-23T04:45:40.163Z,100805.44
2019-05-23T04:46:16.187Z,100797.92
2019-05-23T04:46:53.291Z,100802.47
2019-05-23T04:47:29.264Z,100795.64
2019-05-23T04:48:05.744Z,100802.93
2019-05-23T04:48:41.806Z,100797.58
2019-05-23T04:49:17.806Z,100796.56
2019-05-23T04:49:54.704Z,100798.80
2019-05-23T04:50:31.117Z,100798.01
2019-05-23T04:51:08.623Z,100797.58
2019-05-23T04:51:44.949Z,100795.88
2019-05-23T04:52:21.071Z,100791.09
2019-05-23T04:52:57.382Z,100794.73
2019-05-23T04:53:33.363Z,100792.67
2019-05-23T04:54:09.253Z,100791.19
2019-05-23T04:54:45.536Z,100790.86
2019-05-23T04:55:22.929Z,100788.58
2019-05-23T04:55:59.070Z,100787.66
2019-05-23T04:56:35.073Z,100793.47
2019-05-23T04:57:12.870Z,100789.25
2019-05-23T04:57:49.584Z,100786.17
2019-05-23T04:58:26.391Z,100790.50
2019-05-23T04:59:03.576Z,100784.59
2019-05-23T04:59:40.001Z,100786.17
2019-05-23T05:00:16.982Z,100790.38
2019-05-23T05:00:52.937Z,100784.92
2019-05-23T05:01:28.931Z,100784.71
2019-05-23T05:02:05.008Z,100780.02
2019-05-23T05:02:41.198Z,100776.29
2019-05-23T05:03:18.666Z,100780.15
2019-05-23T05:03:55.147Z,100777.30
2019-05-23T05:04:32.638Z,100773.91
2019-05-23T05:05:08.859Z,100776.29
2019-05-23T05:05:45.600Z,100775.38
2019-05-23T05:06:22.037Z,100776.52
2019-05-23T05:06:58.223Z,100774.23
2019-05-23T05:07:35.158Z,100781.97
2019-05-23T05:08:11.102Z,100779.14
2019-05-23T05:08:47.362Z,100776.28
2019-05-23T05:09:28.476Z,100778.33
2019-05-23T05:10:04.985Z,100774.90
2019-05-23T05:10:41.484Z,100780.37
2019-05-23T05:11:17.526Z,100776.39
2019-05-23T05:11:53.413Z,100775.13
2019-05-23T05:12:30.250Z,100785.59
2019-05-23T05:13:06.810Z,100782.38
2019-05-23T05:13:42.717Z,100778.06
2019-05-23T05:14:19.305Z,100772.72
2019-05-23T05:14:55.674Z,100769.98
2019-05-23T05:15:31.838Z,100768.27
2019-05-23T05:16:09.239Z,100777.62
2019-05-23T05:16:45.589Z,100767.12
2019-05-23T05:17:21.460Z,100764.05
2019-05-23T05:17:57.323Z,100761.06
2019-05-23T05:18:33.513Z,100759.79
2019-05-23T05:19:09.374Z,100755.02
2019-05-23T05:19:46.496Z,100753.97
2019-05-23T05:20:22.964Z,100758.77
2019-05-23T05:20:59.011Z,100754.98
2019-05-23T05:21:35.094Z,100757.41
2019-05-23T05:22:10.936Z,100757.50
2019-05-23T05:22:47.422Z,100758.52
2019-05-23T05:23:23.697Z,100757.94
2019-05-23T05:23:59.641Z,100757.02
2019-05-23T05:24:39.986Z,100758.17
2019-05-23T05:25:14.366Z,100760.90
2019-05-23T05:25:51.771Z,100763.06
2019-05-23T05:26:27.729Z,100759.98
2019-05-23T05:27:04.728Z,100759.19
2019-05-23T05:27:40.950Z,100759.05
2019-05-23T05:28:16.787Z,100761.57
2019-05-23T05:28:53.177Z,100757.81
2019-05-23T05:29:29.018Z,100751.77
2019-05-23T05:30:05.159Z,100752.25
2019-05-23T05:30:41.176Z,100754.67
2019-05-23T05:31:17.129Z,100750.66
2019-05-23T05:31:54.495Z,100752.25
2019-05-23T05:32:44.300Z,100748.59
2019-05-23T05:33:08.435Z,100749.38
2019-05-23T05:33:44.316Z,100745.73
2019-05-23T05:34:20.559Z,100744.92
2019-05-23T05:34:56.431Z,100744.23
2019-05-23T05:35:35.896Z,100740.34
2019-05-23T05:36:11.784Z,100738.75
2019-05-23T05:36:47.801Z,100737.25
2019-05-23T05:37:23.772Z,100739.68
2019-05-23T05:37:59.831Z,100738.75
2019-05-23T05:38:35.753Z,100741.49
2019-05-23T05:39:13.188Z,100739.68
2019-05-23T05:39:49.458Z,100735.58
2019-05-23T05:40:26.164Z,100734.20
2019-05-23T05:41:02.410Z,100732.14
2019-05-23T05:41:39.441Z,100733.54
2019-05-23T05:42:15.299Z,100734.69
2019-05-23T05:42:51.813Z,100733.45
2019-05-23T05:43:28.139Z,100732.66
2019-05-23T05:44:04.059Z,100733.80
2019-05-23T05:44:40.620Z,100736.53
2019-05-23T05:45:17.083Z,100732.78
2019-05-23T05:45:53.471Z,100732.66
2019-05-23T05:46:29.535Z,100725.94
2019-05-23T05:47:05.994Z,100721.70
2019-05-23T05:47:42.127Z,100724.31
2019-05-23T05:48:18.461Z,100721.00
2019-05-23T05:48:54.843Z,100723.74
2019-05-23T05:49:31.514Z,100720.56
2019-05-23T05:50:08.838Z,100722.85
2019-05-23T05:50:44.789Z,100719.20
2019-05-23T05:51:20.958Z,100724.45
2019-05-23T05:51:56.995Z,100723.43
2019-05-23T05:52:32.998Z,100723.11
2019-05-23T05:53:09.528Z,100721.42
2019-05-23T05:53:45.586Z,100714.02
2019-05-23T05:54:21.994Z,100721.52
2019-05-23T05:55:00.809Z,100720.73
2019-05-23T05:55:35.659Z,100721.08
2019-05-23T05:56:13.709Z,100715.95
2019-05-23T05:56:49.661Z,100724.95
2019-05-23T05:57:25.573Z,100724.95
2019-05-23T05:58:01.574Z,100723.72
2019-05-23T05:58:37.501Z,100718.25
2019-05-23T05:59:13.593Z,100714.23
2019-05-23T05:59:49.479Z,100719.61
2019-05-23T06:00:37.483Z,100724.98
2019-05-23T06:01:31.221Z,100722.38
2019-05-23T06:01:52.444Z,100719.31
2019-05-23T06:02:28.317Z,100721.16
2019-05-23T06:03:05.888Z,100722.73
2019-05-23T06:03:44.763Z,100721.27
2019-05-23T06:04:20.725Z,100724.13
2019-05-23T06:04:58.284Z,100728.44
2019-05-23T06:05:55.635Z,100727.54
2019-05-23T06:06:56.534Z,100726.30
2019-05-23T06:07:39.460Z,100722.53
2019-05-23T06:08:16.335Z,100721.30
2019-05-23T06:08:54.971Z,100721.41
2019-05-23T06:09:32.130Z,100720.05
2019-05-23T06:10:11.342Z,100724.72
2019-05-23T06:10:47.751Z,100720.73
2019-05-23T06:11:23.773Z,100716.39
2019-05-23T06:11:59.876Z,100716.29
2019-05-23T06:12:36.109Z,100718.09
2019-05-23T06:13:12.427Z,100722.75
2019-05-23T06:13:48.650Z,100712.17
2019-05-23T06:14:24.617Z,100712.73
2019-05-23T06:15:00.494Z,100713.88
2019-05-23T06:15:36.441Z,100707.28
2019-05-23T06:16:12.611Z,100711.83
2019-05-23T06:16:49.608Z,100706.36
2019-05-23T06:17:25.579Z,100705.25
2019-05-23T06:18:02.278Z,100701.95
2019-05-23T06:18:38.492Z,100698.30
2019-05-23T06:19:14.434Z,100700.69
2019-05-23T06:19:50.387Z,100697.27
2019-05-23T06:20:26.387Z,100701.03
2019-05-23T06:21:02.742Z,100699.00
2019-05-23T06:21:40.526Z,100695.70
2019-05-23T06:22:18.233Z,100693.64
2019-05-23T06:22:54.974Z,100690.91
2019-05-23T06:23:30.918Z,100691.14
2019-05-23T06:24:06.940Z,100685.00
2019-05-23T06:24:49.288Z,100692.27
2019-05-23T06:25:21.330Z,100688.28
2019-05-23T06:25:57.379Z,100683.85
2019-05-23T06:26:33.321Z,100692.25
2019-05-23T06:27:13.742Z,100688.62
2019-05-23T06:27:54.470Z,100685.44
2019-05-23T06:28:30.834Z,100686.21
2019-05-23T06:29:07.387Z,100680.07
2019-05-23T06:29:43.553Z,100677.69
2019-05-23T06:30:20.555Z,100678.36
2019-05-23T06:30:56.394Z,100681.55
2019-05-23T06:31:33.214Z,100677.45
2019-05-23T06:32:11.339Z,100679.04
2019-05-23T06:32:48.838Z,100680.55
2019-05-23T06:33:25.097Z,100676.33
2019-05-23T06:34:02.275Z,100679.73
2019-05-23T06:34:38.643Z,100672.00
2019-05-23T06:35:15.624Z,100671.77
2019-05-23T06:35:51.793Z,100675.21
2019-05-23T06:36:28.729Z,100668.38
2019-05-23T06:37:04.824Z,100670.20
2019-05-23T06:37:41.029Z,100669.97
2019-05-23T06:38:16.930Z,100668.26
2019-05-23T06:38:53.614Z,100664.05
2019-05-23T06:39:29.587Z,100659.03
2019-05-23T06:40:06.601Z,100662.69
2019-05-23T06:40:42.873Z,100659.27
2019-05-23T06:41:19.670Z,100664.04
2019-05-23T06:41:56.155Z,100664.14
2019-05-23T06:42:33.695Z,100659.92
2019-05-23T06:43:09.709Z,100656.50
2019-05-23T06:43:46.005Z,100657.17
2019-05-23T06:44:22.710Z,100657.62
2019-05-23T06:44:58.934Z,100659.46
2019-05-23T06:45:35.179Z,100656.03
2019-05-23T06:46:11.250Z,100655.11
2019-05-23T06:46:47.721Z,100658.96
2019-05-23T06:47:23.647Z,100651.69
2019-05-23T06:48:01.188Z,100653.95
2019-05-23T06:48:37.670Z,100654.17
2019-05-23T06:49:13.660Z,100649.63
2019-05-23T06:49:49.717Z,100656.34
2019-05-23T06:50:26.254Z,100651.44
2019-05-23T06:51:02.329Z,100650.52
2019-05-23T06:51:38.775Z,100647.36
2019-05-23T06:52:14.731Z,100644.63
2019-05-23T06:52:50.727Z,100644.66
2019-05-23T06:53:26.586Z,100648.62
2019-05-23T06:54:02.692Z,100644.42
2019-05-23T06:54:38.647Z,100644.67
2019-05-23T06:55:14.638Z,100650.60
2019-05-23T06:55:50.578Z,100645.61
2019-05-23T06:56:26.474Z,100648.56
2019-05-23T06:57:02.418Z,100647.08
2019-05-23T06:57:38.311Z,100647.41
2019-05-23T06:58:14.520Z,100649.44
2019-05-23T06:58:50.499Z,100640.80
2019-05-23T06:59:26.417Z,100638.41
2019-05-23T07:00:02.717Z,100642.19
2019-05-23T07:00:39.054Z,100644.68
2019-05-23T07:01:14.920Z,100645.27
2019-05-23T07:01:50.772Z,100643.09
2019-05-23T07:02:31.583Z,100636.50
2019-05-23T07:03:05.665Z,100639.22
2019-05-23T07:03:43.584Z,100639.68
2019-05-23T07:04:20.270Z,100639.80
2019-05-23T07:04:56.398Z,100637.65
2019-05-23T07:05:35.762Z,100639.13
2019-05-23T07:06:13.859Z,100637.66
2019-05-23T07:06:50.231Z,100640.02
2019-05-23T07:07:28.118Z,100635.81
2019-05-23T07:08:04.252Z,100636.39
2019-05-23T07:08:40.305Z,100633.77
2019-05-23T07:09:18.571Z,100629.70
2019-05-23T07:09:54.924Z,100632.42
2019-05-23T07:10:30.934Z,100623.08
2019-05-23T07:11:06.821Z,100629.34
2019-05-23T07:11:42.688Z,100627.63
2019-05-23T07:12:18.596Z,100623.17
2019-05-23T07:12:54.779Z,100621.92
2019-05-23T07:13:34.346Z,100622.00
2019-05-23T07:14:10.433Z,100623.26
2019-05-23T07:14:46.958Z,100615.98
2019-05-23T07:15:23.063Z,100612.80